Time;durP1;ratioP1;P1;durP2;ratioP2;P2;SDS_P1;SDS_P2;PMS_P1;PMS_P2;Temp;Humidity;BMP_temperature;BMP_pressure;BME280_temperature;BME280_humidity;BME280_pressure;Samples;Min_cycle;Max_cycle;Signal;HPM_P1;HPM_P2
2022/07/25 00:00:14;;;;;;;5.37;3.30;;;;;;;;;;783877;179;919170;-59
2022/07/25 00:02:40;;;;;;;7.97;3.90;;;;;;;;;;783933;175;951550;-56
2022/07/25 00:05:06;;;;;;;4.77;3.70;;;;;;;;;;777983;179;919283;-59
2022/07/25 00:07:32;;;;;;;9.80;3.97;;;;;;;;;;788171;177;922088;-62
2022/07/25 00:09:57;;;;;;;8.50;4.60;;;;;;;;;;783719;177;821388;-57
2022/07/25 00:12:23;;;;;;;6.53;3.07;;;;;;;;;;781387;177;918967;-58
2022/07/25 00:14:49;;;;;;;6.13;3.73;;;;;;;;;;785135;180;920257;-57
2022/07/25 00:17:15;;;;;;;4.40;3.90;;;;;;;;;;763844;182;915399;-57
2022/07/25 00:19:41;;;;;;;5.77;3.60;;;;;;;;;;778999;177;917165;-58
2022/07/25 00:22:07;;;;;;;8.40;4.13;;;;;;;;;;785672;177;921422;-58
2022/07/25 00:24:33;;;;;;;11.40;4.80;;;;;;;;;;784006;176;940852;-58
2022/07/25 00:26:58;;;;;;;5.90;4.10;;;;;;;;;;783083;177;921447;-57
2022/07/25 00:29:24;;;;;;;10.63;3.77;;;;;;;;;;782343;178;918891;-59
2022/07/25 00:31:50;;;;;;;5.93;3.83;;;;;;;;;;776365;180;920009;-59
2022/07/25 00:34:16;;;;;;;5.97;4.20;;;;;;;;;;767148;182;921399;-60
2022/07/25 00:36:42;;;;;;;5.80;4.20;;;;;;;;;;785736;176;919572;-59
2022/07/25 00:39:08;;;;;;;7.37;3.93;;;;;;;;;;788231;177;815821;-59
2022/07/25 00:41:33;;;;;;;5.90;4.47;;;;;;;;;;780513;178;919332;-57
2022/07/25 00:43:59;;;;;;;6.77;4.43;;;;;;;;;;777655;178;822425;-59
2022/07/25 00:46:25;;;;;;;5.80;4.10;;;;;;;;;;789204;177;873344;-57
2022/07/25 00:48:51;;;;;;;5.20;4.17;;;;;;;;;;783192;176;848322;-59
2022/07/25 00:51:17;;;;;;;5.53;3.80;;;;;;;;;;781821;177;875864;-57
2022/07/25 00:53:43;;;;;;;4.72;3.87;;;;;;;;;;781100;176;919273;-59
2022/07/25 00:56:08;;;;;;;6.40;4.77;;;;;;;;;;771427;180;842074;-57
2022/07/25 00:58:34;;;;;;;5.73;3.80;;;;;;;;;;778458;178;897491;-59
2022/07/25 01:01:00;;;;;;;6.07;4.00;;;;;;;;;;774419;179;918369;-57
2022/07/25 01:03:26;;;;;;;7.27;4.47;;;;;;;;;;773738;180;911231;-57
2022/07/25 01:05:52;;;;;;;12.37;4.80;;;;;;;;;;787442;175;912402;-59
2022/07/25 01:08:18;;;;;;;6.37;4.20;;;;;;;;;;782693;175;921600;-59
2022/07/25 01:10:44;;;;;;;5.83;3.50;;;;;;;;;;793882;175;920092;-56
2022/07/25 01:13:09;;;;;;;9.27;5.20;;;;;;;;;;779551;177;918680;-58
2022/07/25 01:15:35;;;;;;;6.73;5.13;;;;;;;;;;782931;177;919216;-59
2022/07/25 01:18:01;;;;;;;6.37;4.37;;;;;;;;;;779530;177;863372;-57
2022/07/25 01:20:27;;;;;;;5.90;4.07;;;;;;;;;;767698;181;919252;-58
2022/07/25 01:22:53;;;;;;;9.93;4.27;;;;;;;;;;744786;181;1021443;-60
2022/07/25 01:25:19;;;;;;;8.00;4.57;;;;;;;;;;767778;181;931952;-57
2022/07/25 01:27:44;;;;;;;9.40;5.30;;;;;;;;;;768546;183;920081;-58
2022/07/25 01:30:11;;;;;;;6.00;4.37;;;;;;;;;;766097;180;817979;-57
2022/07/25 01:32:37;;;;;;;9.15;5.07;;;;;;;;;;788169;176;982588;-56
2022/07/25 01:35:02;;;;;;;7.27;5.23;;;;;;;;;;789714;178;917140;-56
2022/07/25 01:37:28;;;;;;;5.77;4.53;;;;;;;;;;781675;178;918905;-58
2022/07/25 01:39:54;;;;;;;7.20;5.32;;;;;;;;;;783320;178;919651;-59
2022/07/25 01:42:20;;;;;;;7.87;4.87;;;;;;;;;;779298;179;919084;-57
2022/07/25 01:44:46;;;;;;;7.10;4.73;;;;;;;;;;762570;180;917944;-59
2022/07/25 01:47:12;;;;;;;7.27;5.40;;;;;;;;;;766935;182;923487;-56
2022/07/25 01:49:38;;;;;;;7.17;4.57;;;;;;;;;;782178;178;919699;-59
2022/07/25 01:52:04;;;;;;;5.70;4.53;;;;;;;;;;772722;179;816476;-56
2022/07/25 01:54:31;;;;;;;7.27;4.13;;;;;;;;;;788412;178;895286;-59
2022/07/25 01:56:55;;;;;;;5.67;4.20;;;;;;;;;;783760;178;814241;-60
2022/07/25 01:59:21;;;;;;;6.17;4.60;;;;;;;;;;781938;179;918953;-57
2022/07/25 02:01:47;;;;;;;9.38;5.37;;;;;;;;;;772642;181;818729;-58
2022/07/25 02:04:13;;;;;;;7.80;5.10;;;;;;;;;;776599;180;916806;-58
2022/07/25 02:06:40;;;;;;;8.80;5.57;;;;;;;;;;792297;178;819675;-57
2022/07/25 02:09:05;;;;;;;6.40;4.77;;;;;;;;;;780919;178;919005;-57
2022/07/25 02:11:30;;;;;;;6.27;4.60;;;;;;;;;;778463;178;818739;-59
2022/07/25 02:13:56;;;;;;;8.30;4.00;;;;;;;;;;780634;177;913517;-57
2022/07/25 02:16:22;;;;;;;14.10;4.77;;;;;;;;;;780971;180;924186;-57
2022/07/25 02:18:48;;;;;;;9.53;5.60;;;;;;;;;;769901;180;817708;-58
2022/07/25 02:21:14;;;;;;;6.70;5.40;;;;;;;;;;767176;180;918826;-60
2022/07/25 02:23:40;;;;;;;5.10;4.60;;;;;;;;;;783110;178;914985;-57
2022/07/25 02:26:06;;;;;;;7.37;4.50;;;;;;;;;;784026;177;814707;-59
2022/07/25 02:28:32;;;;;;;5.87;5.00;;;;;;;;;;786230;177;918921;-60
2022/07/25 02:30:57;;;;;;;5.43;4.13;;;;;;;;;;792248;176;916139;-56
2022/07/25 02:33:23;;;;;;;6.73;4.40;;;;;;;;;;758103;183;912117;-57
2022/07/25 02:35:49;;;;;;;6.77;4.90;;;;;;;;;;772950;179;923077;-58
2022/07/25 02:38:18;;;;;;;8.63;5.13;;;;;;;;;;788090;177;925039;-57
2022/07/25 02:40:41;;;;;;;7.00;5.00;;;;;;;;;;768489;180;905870;-57
2022/07/25 02:43:07;;;;;;;5.50;3.90;;;;;;;;;;775884;178;901983;-57
2022/07/25 02:45:33;;;;;;;7.97;5.10;;;;;;;;;;775421;179;929547;-57
2022/07/25 02:47:59;;;;;;;7.85;5.30;;;;;;;;;;771682;180;920021;-59
2022/07/25 02:50:25;;;;;;;8.87;4.77;;;;;;;;;;771915;179;925581;-57
2022/07/25 02:52:50;;;;;;;6.17;4.80;;;;;;;;;;768182;180;1020496;-59
2022/07/25 02:55:16;;;;;;;5.70;4.60;;;;;;;;;;778011;180;817104;-58
2022/07/25 02:57:42;;;;;;;6.00;4.60;;;;;;;;;;775056;179;917257;-57
2022/07/25 03:00:09;;;;;;;9.03;4.43;;;;;;;;;;766137;179;918786;-60
2022/07/25 03:02:35;;;;;;;5.50;4.45;;;;;;;;;;777108;179;918859;-59
2022/07/25 03:05:01;;;;;;;6.60;4.93;;;;;;;;;;778072;179;920781;-57
2022/07/25 03:07:27;;;;;;;6.60;5.03;;;;;;;;;;766328;180;768422;-59
2022/07/25 03:09:53;;;;;;;8.40;6.93;;;;;;;;;;768415;180;920684;-59
2022/07/25 03:12:19;;;;;;;11.43;8.30;;;;;;;;;;778772;178;823688;-59
2022/07/25 03:14:45;;;;;;;10.20;7.00;;;;;;;;;;770516;181;924872;-57
2022/07/25 03:17:10;;;;;;;8.90;6.87;;;;;;;;;;776951;176;891392;-58
2022/07/25 03:19:36;;;;;;;8.50;6.67;;;;;;;;;;787519;177;816248;-59
2022/07/25 03:22:02;;;;;;;8.47;6.60;;;;;;;;;;786264;175;876264;-59
2022/07/25 03:24:28;;;;;;;7.60;5.63;;;;;;;;;;781315;176;936524;-57
2022/07/25 03:26:54;;;;;;;10.90;6.40;;;;;;;;;;787377;177;880768;-57
2022/07/25 03:29:20;;;;;;;7.73;5.47;;;;;;;;;;785665;174;826815;-59
2022/07/25 03:31:45;;;;;;;10.80;5.10;;;;;;;;;;774198;179;924652;-57
2022/07/25 03:34:11;;;;;;;4.30;3.30;;;;;;;;;;784637;176;877960;-57
2022/07/25 03:36:37;;;;;;;6.40;4.27;;;;;;;;;;780703;178;933015;-59
2022/07/25 03:39:03;;;;;;;8.97;4.70;;;;;;;;;;783166;177;918886;-59
2022/07/25 03:41:29;;;;;;;6.17;4.80;;;;;;;;;;781931;177;919050;-57
2022/07/25 03:43:55;;;;;;;6.13;4.70;;;;;;;;;;785944;178;855525;-57
2022/07/25 03:46:20;;;;;;;12.63;4.83;;;;;;;;;;767243;181;933379;-57
2022/07/25 03:48:46;;;;;;;6.40;5.03;;;;;;;;;;770496;179;917877;-60
2022/07/25 03:51:12;;;;;;;6.53;5.17;;;;;;;;;;774257;180;921378;-57
2022/07/25 03:56:19;;;;;;;7.50;5.30;;;;;;;;;;764500;179;922040;-57
2022/07/25 03:58:45;;;;;;;13.37;6.47;;;;;;;;;;769894;180;919521;-58
2022/07/25 04:01:11;;;;;;;10.20;6.57;;;;;;;;;;774919;177;920060;-59
2022/07/25 04:03:37;;;;;;;11.37;6.07;;;;;;;;;;781371;179;921835;-60
2022/07/25 04:06:03;;;;;;;10.73;7.20;;;;;;;;;;780373;176;915361;-59
2022/07/25 04:08:29;;;;;;;8.90;6.73;;;;;;;;;;781603;178;916025;-60
2022/07/25 04:10:55;;;;;;;9.70;6.90;;;;;;;;;;786735;177;917090;-59
2022/07/25 04:13:20;;;;;;;11.90;6.80;;;;;;;;;;785538;175;916885;-58
2022/07/25 04:15:46;;;;;;;8.50;6.87;;;;;;;;;;772167;182;625560;-59
2022/07/25 04:18:12;;;;;;;7.10;6.10;;;;;;;;;;767168;182;829552;-60
2022/07/25 04:20:38;;;;;;;10.13;6.80;;;;;;;;;;783619;175;919399;-60
2022/07/25 04:23:04;;;;;;;8.63;5.10;;;;;;;;;;782808;179;632590;-57
2022/07/25 04:25:30;;;;;;;8.63;5.60;;;;;;;;;;782738;179;625359;-57
2022/07/25 04:27:56;;;;;;;9.83;5.57;;;;;;;;;;774388;177;617870;-59
2022/07/25 04:30:21;;;;;;;8.83;5.67;;;;;;;;;;774733;180;619142;-59
2022/07/25 04:32:47;;;;;;;7.30;5.10;;;;;;;;;;792033;175;635332;-60
2022/07/25 04:35:13;;;;;;;7.20;5.80;;;;;;;;;;798161;175;617716;-59
2022/07/25 04:37:39;;;;;;;5.73;5.10;;;;;;;;;;789988;175;823148;-59
2022/07/25 04:40:05;;;;;;;5.43;3.80;;;;;;;;;;784292;177;915480;-61
2022/07/25 04:42:31;;;;;;;6.50;4.30;;;;;;;;;;787273;178;939607;-59
2022/07/25 04:44:57;;;;;;;8.80;4.83;;;;;;;;;;764888;184;822945;-57
2022/07/25 04:47:22;;;;;;;6.90;5.33;;;;;;;;;;789133;176;928070;-57
2022/07/25 04:49:48;;;;;;;8.53;5.40;;;;;;;;;;789209;177;812800;-57
2022/07/25 04:52:14;;;;;;;7.70;5.87;;;;;;;;;;785918;177;922099;-56
2022/07/25 04:54:40;;;;;;;9.33;6.00;;;;;;;;;;785121;177;843639;-58
2022/07/25 04:57:06;;;;;;;6.73;5.50;;;;;;;;;;788679;177;918317;-59
2022/07/25 04:59:32;;;;;;;8.93;5.30;;;;;;;;;;783875;180;815658;-57
2022/07/25 05:01:57;;;;;;;9.30;5.63;;;;;;;;;;762962;183;919556;-57
2022/07/25 05:04:23;;;;;;;8.68;4.82;;;;;;;;;;787584;176;921452;-57
2022/07/25 05:06:49;;;;;;;11.47;5.73;;;;;;;;;;784490;177;919182;-62
2022/07/25 05:09:15;;;;;;;6.07;4.70;;;;;;;;;;783126;177;919936;-59
2022/07/25 05:11:41;;;;;;;7.03;5.00;;;;;;;;;;787456;177;846032;-57
2022/07/25 05:14:07;;;;;;;10.07;5.70;;;;;;;;;;792430;176;916410;-57
2022/07/25 05:16:33;;;;;;;5.50;4.80;;;;;;;;;;785448;177;817216;-57
2022/07/25 05:18:59;;;;;;;8.50;5.50;;;;;;;;;;782169;178;816889;-56
2022/07/25 05:21:26;;;;;;;9.23;5.62;;;;;;;;;;794782;178;616794;-58
2022/07/25 05:23:52;;;;;;;7.10;5.10;;;;;;;;;;782690;178;917899;-57
2022/07/25 05:26:18;;;;;;;8.40;5.00;;;;;;;;;;779471;177;816625;-57
2022/07/25 05:28:43;;;;;;;5.70;4.40;;;;;;;;;;783236;177;921466;-59
2022/07/25 05:31:09;;;;;;;7.18;4.70;;;;;;;;;;789208;177;917006;-58
2022/07/25 05:33:35;;;;;;;6.60;4.73;;;;;;;;;;784736;177;918804;-58
2022/07/25 05:36:02;;;;;;;11.50;4.90;;;;;;;;;;763074;181;929257;-57
2022/07/25 05:38:27;;;;;;;6.27;4.50;;;;;;;;;;781853;179;821579;-56
2022/07/25 05:40:53;;;;;;;7.97;4.60;;;;;;;;;;763677;183;921441;-57
2022/07/25 05:43:19;;;;;;;5.87;4.30;;;;;;;;;;787919;176;916625;-56
2022/07/25 05:45:46;;;;;;;8.80;4.67;;;;;;;;;;790372;177;916275;-58
2022/07/25 05:48:11;;;;;;;6.60;4.23;;;;;;;;;;782765;177;917938;-58
2022/07/25 05:50:36;;;;;;;6.40;3.47;;;;;;;;;;787815;176;918989;-57
2022/07/25 05:53:02;;;;;;;6.60;4.40;;;;;;;;;;789142;175;920427;-58
2022/07/25 05:55:28;;;;;;;5.40;3.90;;;;;;;;;;792722;177;920998;-57
2022/07/25 05:57:54;;;;;;;5.20;3.57;;;;;;;;;;783556;177;918441;-57
2022/07/25 06:00:20;;;;;;;5.33;3.63;;;;;;;;;;785919;177;919711;-56
2022/07/25 06:02:45;;;;;;;8.97;4.40;;;;;;;;;;778716;178;873545;-58
2022/07/25 06:05:11;;;;;;;4.43;3.30;;;;;;;;;;777356;178;920960;-55
2022/07/25 06:07:37;;;;;;;5.13;3.43;;;;;;;;;;774346;177;912151;-58
2022/07/25 06:10:03;;;;;;;6.27;3.90;;;;;;;;;;790399;177;913669;-58
2022/07/25 06:12:29;;;;;;;5.50;3.60;;;;;;;;;;781107;178;917677;-55
2022/07/25 06:14:55;;;;;;;5.70;3.87;;;;;;;;;;782941;178;630690;-58
2022/07/25 06:17:21;;;;;;;4.53;3.27;;;;;;;;;;782628;178;616125;-58
2022/07/25 06:19:47;;;;;;;6.03;3.53;;;;;;;;;;789352;179;616686;-57
2022/07/25 06:22:12;;;;;;;5.50;4.13;;;;;;;;;;768812;182;816833;-56
2022/07/25 06:24:38;;;;;;;5.20;2.90;;;;;;;;;;779084;179;639743;-57
2022/07/25 06:27:04;;;;;;;6.70;4.30;;;;;;;;;;789250;177;628909;-56
2022/07/25 06:29:30;;;;;;;5.80;4.10;;;;;;;;;;767802;182;616631;-58
2022/07/25 06:31:56;;;;;;;8.60;3.00;;;;;;;;;;787808;176;637088;-58
2022/07/25 06:34:22;;;;;;;4.40;3.50;;;;;;;;;;789570;178;641416;-57
2022/07/25 06:36:47;;;;;;;6.30;3.10;;;;;;;;;;785943;178;626956;-55
2022/07/25 06:39:13;;;;;;;6.10;3.00;;;;;;;;;;784666;175;625110;-57
2022/07/25 06:41:39;;;;;;;5.03;3.30;;;;;;;;;;787196;178;625076;-57
2022/07/25 06:44:05;;;;;;;6.80;3.63;;;;;;;;;;785084;177;617351;-57
2022/07/25 06:46:31;;;;;;;7.37;3.60;;;;;;;;;;784161;176;624285;-57
2022/07/25 06:48:57;;;;;;;6.10;3.17;;;;;;;;;;768772;181;614330;-58
2022/07/25 06:51:23;;;;;;;9.37;3.10;;;;;;;;;;790864;176;635616;-55
2022/07/25 06:53:48;;;;;;;7.00;3.50;;;;;;;;;;790312;176;621482;-58
2022/07/25 06:56:14;;;;;;;8.70;4.50;;;;;;;;;;785197;177;817930;-56
2022/07/25 06:58:40;;;;;;;7.83;3.80;;;;;;;;;;786704;179;920749;-57
2022/07/25 07:01:06;;;;;;;5.70;4.23;;;;;;;;;;782239;179;627658;-55
2022/07/25 07:03:36;;;;;;;5.80;3.27;;;;;;;;;;778910;176;620740;-58
2022/07/25 07:05:59;;;;;;;4.85;2.75;;;;;;;;;;789136;175;637012;-56
2022/07/25 07:08:24;;;;;;;5.70;3.27;;;;;;;;;;776871;177;623628;-56
2022/07/25 07:10:50;;;;;;;4.17;2.80;;;;;;;;;;781317;177;817353;-57
2022/07/25 07:13:17;;;;;;;3.97;2.97;;;;;;;;;;784609;177;812153;-56
2022/07/25 07:15:43;;;;;;;4.17;2.70;;;;;;;;;;789977;178;620542;-56
2022/07/25 07:18:08;;;;;;;5.43;3.17;;;;;;;;;;767196;182;814708;-58
2022/07/25 07:20:34;;;;;;;4.77;2.90;;;;;;;;;;778735;176;919805;-58
2022/07/25 07:23:00;;;;;;;4.80;2.97;;;;;;;;;;783369;178;915798;-56
2022/07/25 07:25:26;;;;;;;5.10;3.13;;;;;;;;;;780808;178;887566;-56
2022/07/25 07:27:52;;;;;;;5.67;3.60;;;;;;;;;;792641;176;620542;-56
2022/07/25 07:30:18;;;;;;;6.47;3.00;;;;;;;;;;784610;179;630515;-58
2022/07/25 07:32:43;;;;;;;4.80;2.67;;;;;;;;;;771700;182;633524;-57
2022/07/25 07:35:10;;;;;;;6.33;3.67;;;;;;;;;;783887;178;626282;-59
2022/07/25 07:37:35;;;;;;;5.77;2.90;;;;;;;;;;786584;178;633008;-57
2022/07/25 07:40:01;;;;;;;9.47;3.00;;;;;;;;;;786224;176;631591;-56
2022/07/25 07:42:27;;;;;;;4.00;2.60;;;;;;;;;;765548;183;618306;-58
2022/07/25 07:44:53;;;;;;;4.43;2.60;;;;;;;;;;769952;180;633921;-60
2022/07/25 07:47:20;;;;;;;3.40;2.40;;;;;;;;;;770354;182;629933;-58
2022/07/25 07:49:45;;;;;;;3.00;1.93;;;;;;;;;;775221;180;624555;-57
2022/07/25 07:52:11;;;;;;;2.60;1.87;;;;;;;;;;778401;178;616786;-56
2022/07/25 07:57:08;;;;;;;3.93;2.17;;;;;;;;;;796099;176;636358;-57
2022/07/25 07:59:34;;;;;;;3.10;1.87;;;;;;;;;;791577;175;658922;-58
2022/07/25 08:02:00;;;;;;;4.00;2.60;;;;;;;;;;772410;176;920929;-56
2022/07/25 08:04:26;;;;;;;6.20;2.27;;;;;;;;;;762310;182;826386;-56
2022/07/25 08:06:52;;;;;;;3.17;2.27;;;;;;;;;;775136;180;712097;-58
2022/07/25 08:09:18;;;;;;;3.30;2.42;;;;;;;;;;768088;178;820785;-58
2022/07/25 08:11:43;;;;;;;4.50;2.40;;;;;;;;;;779177;179;714105;-59
2022/07/25 08:14:09;;;;;;;3.43;2.37;;;;;;;;;;774591;180;914294;-56
2022/07/25 08:16:35;;;;;;;5.57;2.97;;;;;;;;;;770727;180;919309;-58
2022/07/25 08:19:01;;;;;;;6.63;2.60;;;;;;;;;;759629;183;912778;-57
2022/07/25 08:21:27;;;;;;;4.17;2.50;;;;;;;;;;765019;183;629512;-57
2022/07/25 08:23:53;;;;;;;3.20;1.90;;;;;;;;;;772179;181;627007;-56
2022/07/25 08:26:19;;;;;;;5.60;2.57;;;;;;;;;;789649;177;624772;-56
2022/07/25 08:28:44;;;;;;;4.90;2.30;;;;;;;;;;788713;180;628934;-56
2022/07/25 08:31:10;;;;;;;4.47;2.03;;;;;;;;;;780608;177;634895;-57
2022/07/25 08:33:36;;;;;;;4.30;2.83;;;;;;;;;;777029;179;626813;-57
2022/07/25 08:36:02;;;;;;;6.23;2.67;;;;;;;;;;778364;180;624189;-57
2022/07/25 08:38:28;;;;;;;6.50;2.60;;;;;;;;;;777794;180;617187;-57
2022/07/25 08:40:54;;;;;;;4.13;2.80;;;;;;;;;;778106;179;630828;-56
2022/07/25 08:43:20;;;;;;;3.47;2.20;;;;;;;;;;779981;180;614810;-59
2022/07/25 08:45:46;;;;;;;4.87;2.40;;;;;;;;;;777253;181;623209;-58
2022/07/25 08:48:12;;;;;;;3.70;2.20;;;;;;;;;;775394;180;635917;-58
2022/07/25 08:50:38;;;;;;;3.53;2.60;;;;;;;;;;774486;180;646928;-58
2022/07/25 08:53:04;;;;;;;5.60;2.87;;;;;;;;;;778934;180;635995;-57
2022/07/25 08:55:30;;;;;;;8.20;2.50;;;;;;;;;;776804;179;634793;-56
2022/07/25 08:57:56;;;;;;;3.80;2.00;;;;;;;;;;776116;179;619993;-56
2022/07/25 09:00:21;;;;;;;5.83;2.00;;;;;;;;;;775360;181;641038;-59
2022/07/25 09:02:50;;;;;;;3.60;2.10;;;;;;;;;;776792;180;622489;-57
2022/07/25 09:05:16;;;;;;;4.23;2.43;;;;;;;;;;773595;178;625151;-57
2022/07/25 09:07:42;;;;;;;5.23;2.40;;;;;;;;;;773232;180;628310;-57
2022/07/25 09:10:13;;;;;;;3.13;2.33;;;;;;;;;;783166;179;629502;-57
2022/07/25 09:12:39;;;;;;;4.67;2.43;;;;;;;;;;778198;179;623097;-57
2022/07/25 09:15:07;;;;;;;4.90;2.50;;;;;;;;;;773951;180;629309;-56
2022/07/25 09:17:32;;;;;;;6.83;2.30;;;;;;;;;;777016;182;625638;-60
2022/07/25 09:19:57;;;;;;;3.07;2.30;;;;;;;;;;784877;177;629575;-62
2022/07/25 09:22:23;;;;;;;4.00;2.00;;;;;;;;;;790746;178;623029;-60
2022/07/25 09:24:49;;;;;;;5.60;2.53;;;;;;;;;;787959;178;639396;-58
2022/07/25 09:27:17;;;;;;;60.77;9.83;;;;;;;;;;793616;176;634449;-60
2022/07/25 09:29:42;;;;;;;58.80;11.47;;;;;;;;;;790273;177;635368;-57
2022/07/25 09:32:12;;;;;;;3.47;2.20;;;;;;;;;;788002;178;627848;-64
2022/07/25 09:34:38;;;;;;;4.83;2.43;;;;;;;;;;791207;177;617258;-61
2022/07/25 09:37:04;;;;;;;3.47;1.90;;;;;;;;;;788064;177;615046;-62
2022/07/25 09:39:32;;;;;;;6.20;2.27;;;;;;;;;;782283;180;636177;-63
2022/07/25 09:41:57;;;;;;;3.43;2.27;;;;;;;;;;764650;178;634999;-58
2022/07/25 09:44:28;;;;;;;3.33;2.30;;;;;;;;;;790945;178;637954;-61
2022/07/25 09:46:49;;;;;;;4.47;2.30;;;;;;;;;;769242;183;636980;-58
2022/07/25 09:49:15;;;;;;;3.23;2.10;;;;;;;;;;778997;177;643119;-63
2022/07/25 09:51:41;;;;;;;4.10;2.13;;;;;;;;;;791664;177;625051;-58
2022/07/25 09:54:07;;;;;;;3.70;2.20;;;;;;;;;;789728;176;630721;-61
2022/07/25 09:56:34;;;;;;;3.73;2.50;;;;;;;;;;791428;175;616910;-59
2022/07/25 09:59:00;;;;;;;3.20;2.30;;;;;;;;;;786838;176;623198;-62
2022/07/25 10:01:24;;;;;;;4.37;2.60;;;;;;;;;;775924;179;647748;-58
2022/07/25 10:03:51;;;;;;;4.33;2.10;;;;;;;;;;770245;182;625827;-63
2022/07/25 10:06:20;;;;;;;3.43;2.50;;;;;;;;;;766004;181;914901;-58
2022/07/25 10:08:46;;;;;;;4.63;2.00;;;;;;;;;;781889;179;633535;-63
2022/07/25 10:11:17;;;;;;;5.03;2.17;;;;;;;;;;761481;182;648664;-62
2022/07/25 10:13:43;;;;;;;8.17;2.40;;;;;;;;;;779854;179;616780;-62
2022/07/25 10:16:13;;;;;;;3.13;2.30;;;;;;;;;;794881;177;616094;-63
2022/07/25 10:18:39;;;;;;;3.57;2.40;;;;;;;;;;792483;177;632237;-61
2022/07/25 10:21:08;;;;;;;3.93;2.50;;;;;;;;;;784368;177;635282;-58
2022/07/25 10:23:33;;;;;;;3.47;2.30;;;;;;;;;;787626;177;623453;-61
2022/07/25 10:26:05;;;;;;;3.53;2.40;;;;;;;;;;789267;176;633830;-58
2022/07/25 10:28:34;;;;;;;4.23;2.63;;;;;;;;;;769332;182;654272;-64
2022/07/25 10:31:00;;;;;;;7.33;2.23;;;;;;;;;;779350;179;631579;-62
2022/07/25 10:33:26;;;;;;;7.73;3.70;;;;;;;;;;769419;179;627818;-63
2022/07/25 10:35:52;;;;;;;8.03;2.00;;;;;;;;;;784530;179;627617;-62
2022/07/25 10:38:18;;;;;;;3.97;2.00;;;;;;;;;;761338;181;654269;-62
2022/07/25 10:40:44;;;;;;;3.20;2.00;;;;;;;;;;766415;181;628984;-57
2022/07/25 10:43:10;;;;;;;3.80;2.10;;;;;;;;;;770290;182;621871;-58
2022/07/25 10:45:37;;;;;;;3.43;2.23;;;;;;;;;;785705;178;618735;-62
2022/07/25 10:48:02;;;;;;;3.40;1.77;;;;;;;;;;784483;177;626752;-58
2022/07/25 10:50:28;;;;;;;5.20;2.33;;;;;;;;;;785155;177;634056;-58
2022/07/25 10:52:58;;;;;;;2.90;2.00;;;;;;;;;;788399;177;621283;-63
2022/07/25 10:55:23;;;;;;;2.80;1.93;;;;;;;;;;789352;177;622369;-62
2022/07/25 10:57:55;;;;;;;2.70;1.80;;;;;;;;;;762444;181;626186;-63
2022/07/25 11:00:21;;;;;;;2.70;1.73;;;;;;;;;;776742;180;620282;-62
2022/07/25 11:02:46;;;;;;;4.93;2.07;;;;;;;;;;763633;184;616983;-63
2022/07/25 11:05:12;;;;;;;4.03;2.17;;;;;;;;;;775375;180;877593;-63
2022/07/25 11:07:38;;;;;;;3.20;2.33;;;;;;;;;;773638;180;816619;-58
2022/07/25 11:10:04;;;;;;;3.53;2.27;;;;;;;;;;773262;181;918546;-58
2022/07/25 11:12:30;;;;;;;3.80;1.90;;;;;;;;;;777876;180;625365;-61
2022/07/25 11:14:59;;;;;;;6.07;2.10;;;;;;;;;;773735;181;627178;-58
2022/07/25 11:17:25;;;;;;;4.20;2.60;;;;;;;;;;780342;180;626848;-58
2022/07/25 11:19:56;;;;;;;3.57;1.80;;;;;;;;;;774710;180;616795;-62
2022/07/25 11:22:22;;;;;;;5.93;2.03;;;;;;;;;;772128;180;638596;-58
2022/07/25 11:24:48;;;;;;;3.07;2.00;;;;;;;;;;776259;181;627762;-57
2022/07/25 11:27:19;;;;;;;4.97;1.93;;;;;;;;;;775839;182;629317;-62
2022/07/25 11:29:45;;;;;;;5.30;2.07;;;;;;;;;;763501;183;624127;-63
2022/07/25 11:32:11;;;;;;;2.93;1.93;;;;;;;;;;780501;178;627866;-62
2022/07/25 11:34:40;;;;;;;3.33;2.03;;;;;;;;;;779036;179;617312;-64
2022/07/25 11:37:04;;;;;;;4.07;2.20;;;;;;;;;;784203;178;624426;-57
2022/07/25 11:39:29;;;;;;;3.13;1.77;;;;;;;;;;773472;180;632610;-61
2022/07/25 11:41:59;;;;;;;4.03;2.10;;;;;;;;;;776122;180;621933;-61
2022/07/25 11:44:31;;;;;;;5.97;2.13;;;;;;;;;;778321;180;634724;-62
2022/07/25 11:46:57;;;;;;;10.23;1.80;;;;;;;;;;786191;176;610686;-57
2022/07/25 11:49:22;;;;;;;5.90;2.27;;;;;;;;;;788852;177;628497;-60
2022/07/25 11:51:48;;;;;;;3.77;2.10;;;;;;;;;;787379;178;629119;-58
2022/07/25 11:54:15;;;;;;;6.70;1.93;;;;;;;;;;790685;176;616907;-61
2022/07/25 11:56:40;;;;;;;3.70;2.60;;;;;;;;;;767097;183;632102;-61
2022/07/25 11:59:06;;;;;;;4.03;2.10;;;;;;;;;;789433;176;628948;-60
2022/07/25 12:01:33;;;;;;;3.40;2.10;;;;;;;;;;787235;176;616734;-57
2022/07/25 12:04:04;;;;;;;3.47;2.17;;;;;;;;;;789091;177;640489;-57
2022/07/25 12:06:30;;;;;;;3.23;2.27;;;;;;;;;;786014;177;618725;-57
2022/07/25 12:08:56;;;;;;;3.33;2.13;;;;;;;;;;788316;177;627972;-58
2022/07/25 12:11:22;;;;;;;5.07;1.90;;;;;;;;;;792822;178;675438;-58
2022/07/25 12:13:48;;;;;;;2.90;2.00;;;;;;;;;;789033;177;627483;-60
2022/07/25 12:16:13;;;;;;;3.00;2.10;;;;;;;;;;788732;177;630614;-56
2022/07/25 12:18:39;;;;;;;3.63;2.10;;;;;;;;;;788187;177;625760;-59
2022/07/25 12:21:05;;;;;;;3.67;2.20;;;;;;;;;;766708;181;632889;-57
2022/07/25 12:23:31;;;;;;;3.63;2.20;;;;;;;;;;790536;176;624911;-61
2022/07/25 12:25:57;;;;;;;3.28;2.25;;;;;;;;;;790550;177;631322;-60
2022/07/25 12:28:23;;;;;;;4.47;2.20;;;;;;;;;;779172;178;634266;-60
2022/07/25 12:30:49;;;;;;;4.03;2.20;;;;;;;;;;770810;179;620047;-60
2022/07/25 12:33:16;;;;;;;2.90;2.00;;;;;;;;;;788012;178;627482;-60
2022/07/25 12:35:41;;;;;;;3.17;2.37;;;;;;;;;;795196;175;636328;-59
2022/07/25 12:38:07;;;;;;;9.07;2.60;;;;;;;;;;785114;175;691377;-57
2022/07/25 12:40:33;;;;;;;3.43;2.10;;;;;;;;;;781791;178;620034;-57
2022/07/25 12:42:58;;;;;;;7.63;3.20;;;;;;;;;;790151;178;620492;-60
2022/07/25 12:45:24;;;;;;;3.17;2.10;;;;;;;;;;784773;177;625905;-58
2022/07/25 12:47:50;;;;;;;5.00;2.23;;;;;;;;;;788055;177;703048;-57
2022/07/25 12:50:16;;;;;;;3.27;2.07;;;;;;;;;;786107;178;623181;-59
2022/07/25 12:52:42;;;;;;;2.93;2.10;;;;;;;;;;772201;182;658636;-57
2022/07/25 12:55:08;;;;;;;2.90;1.97;;;;;;;;;;772573;180;630563;-57
2022/07/25 12:57:35;;;;;;;2.70;1.80;;;;;;;;;;785573;178;658209;-61
2022/07/25 13:00:00;;;;;;;7.93;2.47;;;;;;;;;;793246;177;629449;-60
2022/07/25 13:02:26;;;;;;;3.07;1.90;;;;;;;;;;769468;182;815317;-60
2022/07/25 13:04:52;;;;;;;5.20;2.27;;;;;;;;;;784240;177;820213;-61
2022/07/25 13:07:18;;;;;;;6.50;2.00;;;;;;;;;;788829;178;842302;-57
2022/07/25 13:09:44;;;;;;;4.13;2.60;;;;;;;;;;784601;177;631139;-58
2022/07/25 13:12:10;;;;;;;6.00;2.30;;;;;;;;;;789424;177;623881;-57
2022/07/25 13:14:36;;;;;;;4.20;2.47;;;;;;;;;;783521;180;635434;-63
2022/07/25 13:17:02;;;;;;;3.03;2.20;;;;;;;;;;774607;180;627072;-57
2022/07/25 13:19:27;;;;;;;3.80;2.67;;;;;;;;;;789061;177;617498;-61
2022/07/25 13:21:53;;;;;;;6.30;3.03;;;;;;;;;;791357;177;624747;-61
2022/07/25 13:24:19;;;;;;;8.77;3.10;;;;;;;;;;791297;178;633017;-57
2022/07/25 13:26:45;;;;;;;6.20;2.23;;;;;;;;;;777878;178;624114;-57
2022/07/25 13:29:11;;;;;;;4.20;2.23;;;;;;;;;;789329;179;624132;-62
2022/07/25 13:31:37;;;;;;;3.40;2.67;;;;;;;;;;793912;178;627306;-57
2022/07/25 13:34:02;;;;;;;5.07;2.10;;;;;;;;;;794026;177;672060;-57
2022/07/25 13:36:29;;;;;;;3.43;2.33;;;;;;;;;;767361;181;630336;-61
2022/07/25 13:38:55;;;;;;;4.93;2.33;;;;;;;;;;780413;180;623145;-60
2022/07/25 13:41:21;;;;;;;3.70;2.77;;;;;;;;;;768584;179;622329;-56
2022/07/25 13:43:47;;;;;;;5.50;2.67;;;;;;;;;;782067;179;633144;-57
2022/07/25 13:46:13;;;;;;;3.30;2.30;;;;;;;;;;760262;184;646892;-57
2022/07/25 13:48:39;;;;;;;2.87;2.10;;;;;;;;;;775480;180;623091;-62
2022/07/25 13:51:04;;;;;;;4.80;2.57;;;;;;;;;;775063;178;619166;-60
2022/07/25 13:53:30;;;;;;;4.47;2.30;;;;;;;;;;774397;180;644828;-61
2022/07/25 13:55:57;;;;;;;3.40;2.50;;;;;;;;;;788871;178;628426;-56
2022/07/25 13:58:22;;;;;;;3.40;2.50;;;;;;;;;;779661;179;628967;-59
2022/07/25 14:00:48;;;;;;;4.07;2.40;;;;;;;;;;775650;179;617222;-59
2022/07/25 14:03:13;;;;;;;4.60;2.63;;;;;;;;;;783049;180;632369;-60
2022/07/25 14:05:39;;;;;;;4.23;2.60;;;;;;;;;;776804;179;633876;-56
2022/07/25 14:08:06;;;;;;;4.17;2.73;;;;;;;;;;775921;179;628041;-56
2022/07/25 14:10:31;;;;;;;4.73;2.80;;;;;;;;;;784702;179;623324;-57
2022/07/25 14:12:57;;;;;;;13.37;3.47;;;;;;;;;;784220;177;623185;-60
2022/07/25 14:15:24;;;;;;;5.40;3.33;;;;;;;;;;786533;177;816608;-56
2022/07/25 14:17:51;;;;;;;4.83;2.80;;;;;;;;;;782366;178;620091;-60
2022/07/25 14:20:17;;;;;;;4.30;2.70;;;;;;;;;;777832;180;620843;-62
2022/07/25 14:22:43;;;;;;;3.90;2.67;;;;;;;;;;778567;179;627673;-58
2022/07/25 14:25:09;;;;;;;4.70;3.13;;;;;;;;;;777543;180;624973;-63